sensor_id;sensor_type;location;lat;lon;timestamp;P1;durP1;ratioP1;P2;durP2;ratioP2
71475;SDS011;59286;59.274;17.974;2022-12-20T00:01:51;30.80;;;21.15;;
71475;SDS011;59286;59.274;17.974;2022-12-20T00:04:16;39.53;;;23.85;;
71475;SDS011;59286;59.274;17.974;2022-12-20T00:06:41;42.15;;;23.40;;
71475;SDS011;59286;59.274;17.974;2022-12-20T00:09:07;26.52;;;18.27;;
71475;SDS011;59286;59.274;17.974;2022-12-20T00:11:34;31.25;;;20.20;;
71475;SDS011;59286;59.274;17.974;2022-12-20T00:14:00;38.53;;;23.48;;
71475;SDS011;59286;59.274;17.974;2022-12-20T00:16:26;34.90;;;21.23;;
71475;SDS011;59286;59.274;17.974;2022-12-20T00:18:54;29.83;;;20.40;;
71475;SDS011;59286;59.274;17.974;2022-12-20T00:21:21;32.25;;;20.90;;
71475;SDS011;59286;59.274;17.974;2022-12-20T00:23:47;32.67;;;21.05;;
71475;SDS011;59286;59.274;17.974;2022-12-20T00:26:14;33.17;;;21.85;;
71475;SDS011;59286;59.274;17.974;2022-12-20T00:28:42;30.10;;;19.85;;
71475;SDS011;59286;59.274;17.974;2022-12-20T00:31:09;34.50;;;21.33;;
71475;SDS011;59286;59.274;17.974;2022-12-20T00:33:36;27.15;;;18.33;;
71475;SDS011;59286;59.274;17.974;2022-12-20T00:36:03;27.40;;;18.48;;
71475;SDS011;59286;59.274;17.974;2022-12-20T00:38:30;33.25;;;20.70;;
71475;SDS011;59286;59.274;17.974;2022-12-20T00:40:59;40.85;;;23.33;;
71475;SDS011;59286;59.274;17.974;2022-12-20T00:43:30;30.13;;;19.83;;
71475;SDS011;59286;59.274;17.974;2022-12-20T00:45:56;37.92;;;22.40;;
71475;SDS011;59286;59.274;17.974;2022-12-20T00:48:22;33.33;;;20.83;;
71475;SDS011;59286;59.274;17.974;2022-12-20T00:50:48;32.75;;;20.90;;
71475;SDS011;59286;59.274;17.974;2022-12-20T00:53:13;32.17;;;20.67;;
71475;SDS011;59286;59.274;17.974;2022-12-20T00:55:43;29.50;;;21.20;;
71475;SDS011;59286;59.274;17.974;2022-12-20T00:58:09;33.97;;;20.63;;
71475;SDS011;59286;59.274;17.974;2022-12-20T01:00:35;36.70;;;21.38;;
71475;SDS011;59286;59.274;17.974;2022-12-20T01:03:01;39.20;;;23.88;;
71475;SDS011;59286;59.274;17.974;2022-12-20T01:05:27;37.40;;;22.00;;
71475;SDS011;59286;59.274;17.974;2022-12-20T01:07:52;33.95;;;20.95;;
71475;SDS011;59286;59.274;17.974;2022-12-20T01:10:17;37.15;;;21.48;;
71475;SDS011;59286;59.274;17.974;2022-12-20T01:12:43;35.67;;;21.38;;
71475;SDS011;59286;59.274;17.974;2022-12-20T01:15:08;34.33;;;21.10;;
71475;SDS011;59286;59.274;17.974;2022-12-20T01:17:35;34.55;;;21.75;;
71475;SDS011;59286;59.274;17.974;2022-12-20T01:20:00;36.47;;;23.35;;
71475;SDS011;59286;59.274;17.974;2022-12-20T01:22:26;30.08;;;20.73;;
71475;SDS011;59286;59.274;17.974;2022-12-20T01:24:52;38.63;;;22.98;;
71475;SDS011;59286;59.274;17.974;2022-12-20T01:27:17;35.35;;;22.92;;
71475;SDS011;59286;59.274;17.974;2022-12-20T01:29:43;32.72;;;22.00;;
71475;SDS011;59286;59.274;17.974;2022-12-20T01:32:09;36.35;;;22.30;;
71475;SDS011;59286;59.274;17.974;2022-12-20T01:34:34;37.05;;;22.23;;
71475;SDS011;59286;59.274;17.974;2022-12-20T01:36:59;35.33;;;22.60;;
71475;SDS011;59286;59.274;17.974;2022-12-20T01:39:25;38.83;;;24.17;;
71475;SDS011;59286;59.274;17.974;2022-12-20T01:41:50;43.55;;;25.58;;
71475;SDS011;59286;59.274;17.974;2022-12-20T01:46:42;37.10;;;22.73;;
71475;SDS011;59286;59.274;17.974;2022-12-20T01:51:55;48.33;;;26.38;;
71475;SDS011;59286;59.274;17.974;2022-12-20T01:54:25;42.70;;;25.55;;
71475;SDS011;59286;59.274;17.974;2022-12-20T01:56:57;45.63;;;25.38;;
71475;SDS011;59286;59.274;17.974;2022-12-20T01:59:26;40.10;;;23.77;;
71475;SDS011;59286;59.274;17.974;2022-12-20T02:01:53;45.33;;;26.95;;
71475;SDS011;59286;59.274;17.974;2022-12-20T02:04:23;37.70;;;22.63;;
71475;SDS011;59286;59.274;17.974;2022-12-20T02:06:48;41.15;;;23.30;;
71475;SDS011;59286;59.274;17.974;2022-12-20T02:09:14;52.75;;;29.10;;
71475;SDS011;59286;59.274;17.974;2022-12-20T02:20:39;48.45;;;26.20;;
71475;SDS011;59286;59.274;17.974;2022-12-20T02:23:15;55.53;;;28.27;;
71475;SDS011;59286;59.274;17.974;2022-12-20T02:31:07;49.97;;;24.80;;
71475;SDS011;59286;59.274;17.974;2022-12-20T02:33:36;31.67;;;20.80;;
71475;SDS011;59286;59.274;17.974;2022-12-20T02:36:06;45.33;;;24.98;;
71475;SDS011;59286;59.274;17.974;2022-12-20T02:38:33;39.80;;;24.05;;
71475;SDS011;59286;59.274;17.974;2022-12-20T02:41:11;48.35;;;27.00;;
71475;SDS011;59286;59.274;17.974;2022-12-20T02:43:44;43.95;;;24.02;;
71475;SDS011;59286;59.274;17.974;2022-12-20T02:46:30;48.60;;;25.77;;
71475;SDS011;59286;59.274;17.974;2022-12-20T02:48:58;44.95;;;25.17;;
71475;SDS011;59286;59.274;17.974;2022-12-20T02:51:27;41.53;;;25.48;;
71475;SDS011;59286;59.274;17.974;2022-12-20T02:53:56;35.10;;;20.65;;
71475;SDS011;59286;59.274;17.974;2022-12-20T02:58:57;39.95;;;23.20;;
71475;SDS011;59286;59.274;17.974;2022-12-20T03:01:31;58.20;;;30.15;;
71475;SDS011;59286;59.274;17.974;2022-12-20T03:03:59;40.40;;;23.38;;
71475;SDS011;59286;59.274;17.974;2022-12-20T03:06:26;34.63;;;21.13;;
71475;SDS011;59286;59.274;17.974;2022-12-20T03:08:51;53.92;;;28.55;;
71475;SDS011;59286;59.274;17.974;2022-12-20T03:11:16;58.67;;;29.73;;
71475;SDS011;59286;59.274;17.974;2022-12-20T03:13:42;60.22;;;30.70;;
71475;SDS011;59286;59.274;17.974;2022-12-20T03:16:07;47.97;;;24.63;;
71475;SDS011;59286;59.274;17.974;2022-12-20T03:18:34;64.05;;;31.75;;
71475;SDS011;59286;59.274;17.974;2022-12-20T03:20:59;33.95;;;20.77;;
71475;SDS011;59286;59.274;17.974;2022-12-20T03:23:25;53.40;;;27.95;;
71475;SDS011;59286;59.274;17.974;2022-12-20T03:25:50;52.10;;;27.77;;
71475;SDS011;59286;59.274;17.974;2022-12-20T03:28:15;41.20;;;23.58;;
71475;SDS011;59286;59.274;17.974;2022-12-20T03:30:41;57.03;;;28.42;;
71475;SDS011;59286;59.274;17.974;2022-12-20T03:33:06;53.15;;;27.98;;
71475;SDS011;59286;59.274;17.974;2022-12-20T03:35:32;50.05;;;27.50;;
71475;SDS011;59286;59.274;17.974;2022-12-20T03:37:57;50.17;;;27.45;;
71475;SDS011;59286;59.274;17.974;2022-12-20T03:40:22;50.13;;;26.60;;
71475;SDS011;59286;59.274;17.974;2022-12-20T03:42:48;51.10;;;27.02;;
71475;SDS011;59286;59.274;17.974;2022-12-20T03:45:13;50.30;;;25.35;;
71475;SDS011;59286;59.274;17.974;2022-12-20T03:47:39;51.72;;;27.63;;
71475;SDS011;59286;59.274;17.974;2022-12-20T03:50:05;47.78;;;25.58;;
71475;SDS011;59286;59.274;17.974;2022-12-20T03:52:31;65.80;;;30.35;;
71475;SDS011;59286;59.274;17.974;2022-12-20T03:54:56;46.40;;;23.58;;
71475;SDS011;59286;59.274;17.974;2022-12-20T03:57:22;51.58;;;27.05;;
71475;SDS011;59286;59.274;17.974;2022-12-20T03:59:47;59.17;;;28.95;;
71475;SDS011;59286;59.274;17.974;2022-12-20T04:02:13;54.63;;;28.33;;
71475;SDS011;59286;59.274;17.974;2022-12-20T04:04:38;57.58;;;28.88;;
71475;SDS011;59286;59.274;17.974;2022-12-20T04:07:03;44.53;;;24.60;;
71475;SDS011;59286;59.274;17.974;2022-12-20T04:09:29;49.58;;;25.30;;
71475;SDS011;59286;59.274;17.974;2022-12-20T04:11:54;57.58;;;30.60;;
71475;SDS011;59286;59.274;17.974;2022-12-20T04:14:19;56.03;;;28.35;;
71475;SDS011;59286;59.274;17.974;2022-12-20T04:16:45;45.78;;;25.85;;
71475;SDS011;59286;59.274;17.974;2022-12-20T04:19:10;52.08;;;27.63;;
71475;SDS011;59286;59.274;17.974;2022-12-20T04:21:36;40.30;;;21.95;;
71475;SDS011;59286;59.274;17.974;2022-12-20T04:24:01;48.47;;;24.77;;
71475;SDS011;59286;59.274;17.974;2022-12-20T04:26:28;41.78;;;23.17;;
71475;SDS011;59286;59.274;17.974;2022-12-20T04:28:53;41.60;;;23.05;;
71475;SDS011;59286;59.274;17.974;2022-12-20T04:31:19;50.70;;;26.27;;
71475;SDS011;59286;59.274;17.974;2022-12-20T04:33:45;50.08;;;26.00;;
71475;SDS011;59286;59.274;17.974;2022-12-20T04:36:11;40.85;;;23.63;;
71475;SDS011;59286;59.274;17.974;2022-12-20T04:38:36;42.00;;;22.95;;
71475;SDS011;59286;59.274;17.974;2022-12-20T04:41:02;37.67;;;19.52;;
71475;SDS011;59286;59.274;17.974;2022-12-20T04:43:27;46.22;;;25.48;;
71475;SDS011;59286;59.274;17.974;2022-12-20T04:45:53;43.28;;;23.38;;
71475;SDS011;59286;59.274;17.974;2022-12-20T04:48:23;44.70;;;24.52;;
71475;SDS011;59286;59.274;17.974;2022-12-20T04:50:53;55.65;;;27.35;;
71475;SDS011;59286;59.274;17.974;2022-12-20T04:53:20;43.90;;;23.90;;
71475;SDS011;59286;59.274;17.974;2022-12-20T04:56:05;42.40;;;23.37;;
71475;SDS011;59286;59.274;17.974;2022-12-20T04:58:31;46.45;;;24.98;;
71475;SDS011;59286;59.274;17.974;2022-12-20T05:00:56;48.70;;;25.67;;
71475;SDS011;59286;59.274;17.974;2022-12-20T05:03:22;44.78;;;23.98;;
71475;SDS011;59286;59.274;17.974;2022-12-20T05:05:49;41.30;;;22.42;;
71475;SDS011;59286;59.274;17.974;2022-12-20T05:08:14;48.55;;;24.85;;
71475;SDS011;59286;59.274;17.974;2022-12-20T05:10:40;43.30;;;24.30;;
71475;SDS011;59286;59.274;17.974;2022-12-20T05:13:06;52.60;;;25.52;;
71475;SDS011;59286;59.274;17.974;2022-12-20T05:15:31;33.03;;;18.42;;
71475;SDS011;59286;59.274;17.974;2022-12-20T05:17:57;28.38;;;17.88;;
71475;SDS011;59286;59.274;17.974;2022-12-20T05:20:25;43.15;;;23.38;;
71475;SDS011;59286;59.274;17.974;2022-12-20T05:22:51;39.05;;;20.58;;
71475;SDS011;59286;59.274;17.974;2022-12-20T05:25:37;36.78;;;20.17;;
71475;SDS011;59286;59.274;17.974;2022-12-20T05:28:32;31.52;;;19.10;;
71475;SDS011;59286;59.274;17.974;2022-12-20T05:30:59;38.35;;;20.65;;
71475;SDS011;59286;59.274;17.974;2022-12-20T05:33:24;31.00;;;18.58;;
71475;SDS011;59286;59.274;17.974;2022-12-20T05:35:50;33.78;;;20.08;;
71475;SDS011;59286;59.274;17.974;2022-12-20T05:38:16;33.22;;;18.85;;
71475;SDS011;59286;59.274;17.974;2022-12-20T05:40:41;39.05;;;22.52;;
71475;SDS011;59286;59.274;17.974;2022-12-20T05:43:07;43.95;;;21.80;;
71475;SDS011;59286;59.274;17.974;2022-12-20T05:45:33;33.70;;;19.20;;
71475;SDS011;59286;59.274;17.974;2022-12-20T05:47:59;31.90;;;18.33;;
71475;SDS011;59286;59.274;17.974;2022-12-20T05:50:25;26.98;;;15.68;;
71475;SDS011;59286;59.274;17.974;2022-12-20T05:52:50;38.00;;;19.83;;
71475;SDS011;59286;59.274;17.974;2022-12-20T05:55:15;22.13;;;14.52;;
71475;SDS011;59286;59.274;17.974;2022-12-20T05:57:41;29.55;;;18.15;;
71475;SDS011;59286;59.274;17.974;2022-12-20T06:00:07;21.60;;;14.43;;
71475;SDS011;59286;59.274;17.974;2022-12-20T06:02:33;20.02;;;13.32;;
71475;SDS011;59286;59.274;17.974;2022-12-20T06:04:58;26.75;;;15.00;;
71475;SDS011;59286;59.274;17.974;2022-12-20T06:07:24;22.27;;;12.95;;
71475;SDS011;59286;59.274;17.974;2022-12-20T06:09:52;23.98;;;15.25;;
71475;SDS011;59286;59.274;17.974;2022-12-20T06:12:18;25.83;;;16.42;;
71475;SDS011;59286;59.274;17.974;2022-12-20T06:14:43;24.98;;;14.20;;
71475;SDS011;59286;59.274;17.974;2022-12-20T06:17:08;15.35;;;11.02;;
71475;SDS011;59286;59.274;17.974;2022-12-20T06:19:35;27.95;;;17.13;;
71475;SDS011;59286;59.274;17.974;2022-12-20T06:22:01;24.35;;;15.77;;
71475;SDS011;59286;59.274;17.974;2022-12-20T06:24:27;20.05;;;13.27;;
71475;SDS011;59286;59.274;17.974;2022-12-20T06:26:52;26.25;;;16.23;;
71475;SDS011;59286;59.274;17.974;2022-12-20T06:29:18;26.10;;;17.15;;
71475;SDS011;59286;59.274;17.974;2022-12-20T06:31:45;26.15;;;15.90;;
71475;SDS011;59286;59.274;17.974;2022-12-20T06:34:13;20.13;;;13.63;;
71475;SDS011;59286;59.274;17.974;2022-12-20T06:36:38;21.73;;;15.00;;
71475;SDS011;59286;59.274;17.974;2022-12-20T06:39:03;30.70;;;19.08;;
71475;SDS011;59286;59.274;17.974;2022-12-20T06:41:29;31.23;;;17.65;;
71475;SDS011;59286;59.274;17.974;2022-12-20T06:43:54;30.75;;;19.23;;
71475;SDS011;59286;59.274;17.974;2022-12-20T06:46:20;28.17;;;17.67;;
71475;SDS011;59286;59.274;17.974;2022-12-20T06:48:45;17.13;;;12.50;;
71475;SDS011;59286;59.274;17.974;2022-12-20T06:51:10;17.80;;;12.63;;
71475;SDS011;59286;59.274;17.974;2022-12-20T06:53:36;24.52;;;15.65;;
71475;SDS011;59286;59.274;17.974;2022-12-20T06:56:01;23.67;;;15.15;;
71475;SDS011;59286;59.274;17.974;2022-12-20T06:58:27;22.48;;;14.40;;
71475;SDS011;59286;59.274;17.974;2022-12-20T07:00:53;22.25;;;15.35;;
71475;SDS011;59286;59.274;17.974;2022-12-20T07:03:18;24.83;;;16.25;;
71475;SDS011;59286;59.274;17.974;2022-12-20T07:05:44;18.38;;;13.00;;
71475;SDS011;59286;59.274;17.974;2022-12-20T07:08:09;27.05;;;17.45;;
71475;SDS011;59286;59.274;17.974;2022-12-20T07:10:35;14.77;;;11.48;;
71475;SDS011;59286;59.274;17.974;2022-12-20T07:13:01;25.05;;;15.60;;
71475;SDS011;59286;59.274;17.974;2022-12-20T07:15:26;22.58;;;14.95;;
71475;SDS011;59286;59.274;17.974;2022-12-20T07:17:52;23.35;;;16.45;;
71475;SDS011;59286;59.274;17.974;2022-12-20T07:20:17;26.88;;;17.05;;
71475;SDS011;59286;59.274;17.974;2022-12-20T07:22:42;34.00;;;19.77;;
71475;SDS011;59286;59.274;17.974;2022-12-20T07:25:08;25.45;;;16.40;;
71475;SDS011;59286;59.274;17.974;2022-12-20T07:27:34;19.45;;;13.23;;
71475;SDS011;59286;59.274;17.974;2022-12-20T07:30:00;28.10;;;17.48;;
71475;SDS011;59286;59.274;17.974;2022-12-20T07:32:26;21.40;;;13.93;;
71475;SDS011;59286;59.274;17.974;2022-12-20T07:34:51;16.98;;;13.02;;
71475;SDS011;59286;59.274;17.974;2022-12-20T07:37:17;24.85;;;16.80;;
71475;SDS011;59286;59.274;17.974;2022-12-20T07:39:43;16.88;;;11.38;;
71475;SDS011;59286;59.274;17.974;2022-12-20T07:42:08;16.98;;;12.48;;
71475;SDS011;59286;59.274;17.974;2022-12-20T07:44:33;15.43;;;11.98;;
71475;SDS011;59286;59.274;17.974;2022-12-20T07:46:59;15.68;;;11.43;;
71475;SDS011;59286;59.274;17.974;2022-12-20T07:49:25;18.88;;;13.63;;
71475;SDS011;59286;59.274;17.974;2022-12-20T07:51:52;21.65;;;14.88;;
71475;SDS011;59286;59.274;17.974;2022-12-20T07:54:25;13.07;;;10.65;;
71475;SDS011;59286;59.274;17.974;2022-12-20T07:56:55;15.93;;;12.52;;
71475;SDS011;59286;59.274;17.974;2022-12-20T07:59:26;19.80;;;13.88;;
71475;SDS011;59286;59.274;17.974;2022-12-20T08:01:55;19.23;;;13.60;;
71475;SDS011;59286;59.274;17.974;2022-12-20T08:04:22;12.45;;;8.73;;
71475;SDS011;59286;59.274;17.974;2022-12-20T08:06:50;17.95;;;12.45;;
71475;SDS011;59286;59.274;17.974;2022-12-20T08:09:18;18.00;;;12.88;;
71475;SDS011;59286;59.274;17.974;2022-12-20T08:11:45;17.90;;;12.23;;
71475;SDS011;59286;59.274;17.974;2022-12-20T08:14:12;18.60;;;13.10;;
71475;SDS011;59286;59.274;17.974;2022-12-20T08:16:38;18.20;;;12.35;;
71475;SDS011;59286;59.274;17.974;2022-12-20T08:19:03;17.58;;;12.00;;
71475;SDS011;59286;59.274;17.974;2022-12-20T08:21:29;14.45;;;9.88;;
71475;SDS011;59286;59.274;17.974;2022-12-20T08:23:55;17.70;;;12.68;;
71475;SDS011;59286;59.274;17.974;2022-12-20T08:26:20;16.42;;;13.52;;
71475;SDS011;59286;59.274;17.974;2022-12-20T08:28:46;14.70;;;11.25;;
71475;SDS011;59286;59.274;17.974;2022-12-20T08:31:12;17.02;;;13.25;;
71475;SDS011;59286;59.274;17.974;2022-12-20T08:33:37;16.55;;;12.50;;
71475;SDS011;59286;59.274;17.974;2022-12-20T08:36:05;16.30;;;12.32;;
71475;SDS011;59286;59.274;17.974;2022-12-20T08:38:32;18.73;;;13.10;;
71475;SDS011;59286;59.274;17.974;2022-12-20T08:41:02;15.63;;;10.43;;
71475;SDS011;59286;59.274;17.974;2022-12-20T08:43:32;9.25;;;8.18;;
71475;SDS011;59286;59.274;17.974;2022-12-20T08:45:58;13.60;;;11.48;;
71475;SDS011;59286;59.274;17.974;2022-12-20T08:48:24;11.60;;;9.10;;
71475;SDS011;59286;59.274;17.974;2022-12-20T08:50:58;18.40;;;12.30;;
71475;SDS011;59286;59.274;17.974;2022-12-20T08:53:25;15.93;;;11.63;;
71475;SDS011;59286;59.274;17.974;2022-12-20T08:55:51;15.43;;;12.32;;
71475;SDS011;59286;59.274;17.974;2022-12-20T08:58:16;18.55;;;12.80;;
71475;SDS011;59286;59.274;17.974;2022-12-20T09:00:42;15.52;;;10.98;;
71475;SDS011;59286;59.274;17.974;2022-12-20T09:03:08;9.18;;;8.25;;
71475;SDS011;59286;59.274;17.974;2022-12-20T09:05:35;18.85;;;14.50;;
71475;SDS011;59286;59.274;17.974;2022-12-20T09:08:01;14.35;;;11.52;;
71475;SDS011;59286;59.274;17.974;2022-12-20T09:10:26;22.85;;;15.55;;
71475;SDS011;59286;59.274;17.974;2022-12-20T09:12:51;15.25;;;11.07;;
71475;SDS011;59286;59.274;17.974;2022-12-20T09:15:17;11.00;;;8.98;;
71475;SDS011;59286;59.274;17.974;2022-12-20T09:17:42;22.55;;;13.95;;
71475;SDS011;59286;59.274;17.974;2022-12-20T09:20:07;31.08;;;17.88;;
71475;SDS011;59286;59.274;17.974;2022-12-20T09:22:33;20.20;;;13.82;;
71475;SDS011;59286;59.274;17.974;2022-12-20T09:24:58;42.90;;;19.90;;
71475;SDS011;59286;59.274;17.974;2022-12-20T09:27:24;12.75;;;10.50;;
71475;SDS011;59286;59.274;17.974;2022-12-20T09:29:49;23.73;;;14.05;;
71475;SDS011;59286;59.274;17.974;2022-12-20T09:32:14;29.02;;;17.13;;
71475;SDS011;59286;59.274;17.974;2022-12-20T09:34:40;22.88;;;15.35;;
71475;SDS011;59286;59.274;17.974;2022-12-20T09:37:05;39.13;;;18.30;;
71475;SDS011;59286;59.274;17.974;2022-12-20T09:39:30;23.88;;;14.93;;
71475;SDS011;59286;59.274;17.974;2022-12-20T09:41:56;20.10;;;13.40;;
71475;SDS011;59286;59.274;17.974;2022-12-20T09:44:29;29.60;;;16.42;;
71475;SDS011;59286;59.274;17.974;2022-12-20T09:47:00;32.40;;;18.17;;
71475;SDS011;59286;59.274;17.974;2022-12-20T09:49:30;31.33;;;18.02;;
71475;SDS011;59286;59.274;17.974;2022-12-20T09:52:16;29.23;;;16.80;;
71475;SDS011;59286;59.274;17.974;2022-12-20T09:55:00;35.63;;;17.45;;
71475;SDS011;59286;59.274;17.974;2022-12-20T09:57:57;33.75;;;17.17;;
71475;SDS011;59286;59.274;17.974;2022-12-20T10:00:35;13.00;;;8.98;;
71475;SDS011;59286;59.274;17.974;2022-12-20T10:03:09;16.45;;;11.93;;
71475;SDS011;59286;59.274;17.974;2022-12-20T10:05:51;16.73;;;11.90;;
71475;SDS011;59286;59.274;17.974;2022-12-20T10:16:35;11.73;;;9.98;;
71475;SDS011;59286;59.274;17.974;2022-12-20T10:22:16;14.82;;;11.50;;
71475;SDS011;59286;59.274;17.974;2022-12-20T10:27:51;12.07;;;10.57;;
71475;SDS011;59286;59.274;17.974;2022-12-20T10:30:22;10.05;;;8.68;;
71475;SDS011;59286;59.274;17.974;2022-12-20T10:32:50;12.07;;;9.70;;
71475;SDS011;59286;59.274;17.974;2022-12-20T10:41:02;10.52;;;9.02;;
71475;SDS011;59286;59.274;17.974;2022-12-20T10:43:25;12.43;;;8.80;;
71475;SDS011;59286;59.274;17.974;2022-12-20T10:45:55;9.85;;;8.80;;
71475;SDS011;59286;59.274;17.974;2022-12-20T10:53:59;12.50;;;10.43;;
71475;SDS011;59286;59.274;17.974;2022-12-20T10:56:30;10.98;;;9.43;;
71475;SDS011;59286;59.274;17.974;2022-12-20T10:59:01;11.20;;;9.45;;
71475;SDS011;59286;59.274;17.974;2022-12-20T11:01:29;12.65;;;10.95;;
71475;SDS011;59286;59.274;17.974;2022-12-20T11:14:28;16.20;;;11.40;;
71475;SDS011;59286;59.274;17.974;2022-12-20T11:16:56;12.32;;;11.00;;
71475;SDS011;59286;59.274;17.974;2022-12-20T11:27:55;12.15;;;9.82;;
71475;SDS011;59286;59.274;17.974;2022-12-20T11:33:28;11.88;;;10.13;;
71475;SDS011;59286;59.274;17.974;2022-12-20T11:36:46;11.38;;;9.73;;
71475;SDS011;59286;59.274;17.974;2022-12-20T11:39:29;15.65;;;12.68;;
71475;SDS011;59286;59.274;17.974;2022-12-20T11:44:45;18.90;;;14.93;;
71475;SDS011;59286;59.274;17.974;2022-12-20T11:52:54;13.05;;;11.02;;
71475;SDS011;59286;59.274;17.974;2022-12-20T11:55:30;18.10;;;13.52;;
71475;SDS011;59286;59.274;17.974;2022-12-20T12:00:33;11.98;;;10.45;;
71475;SDS011;59286;59.274;17.974;2022-12-20T12:03:03;18.60;;;13.93;;
71475;SDS011;59286;59.274;17.974;2022-12-20T12:05:47;21.48;;;15.30;;
71475;SDS011;59286;59.274;17.974;2022-12-20T12:08:23;21.77;;;14.30;;
71475;SDS011;59286;59.274;17.974;2022-12-20T12:11:04;20.75;;;14.05;;
71475;SDS011;59286;59.274;17.974;2022-12-20T12:13:37;17.05;;;12.23;;
71475;SDS011;59286;59.274;17.974;2022-12-20T12:16:17;19.92;;;13.85;;
71475;SDS011;59286;59.274;17.974;2022-12-20T12:18:47;12.13;;;9.70;;
71475;SDS011;59286;59.274;17.974;2022-12-20T12:21:16;14.18;;;10.52;;
71475;SDS011;59286;59.274;17.974;2022-12-20T12:23:58;10.63;;;8.93;;
71475;SDS011;59286;59.274;17.974;2022-12-20T12:26:26;11.45;;;10.07;;
71475;SDS011;59286;59.274;17.974;2022-12-20T12:29:00;12.57;;;10.80;;
71475;SDS011;59286;59.274;17.974;2022-12-20T12:34:13;10.73;;;8.38;;
71475;SDS011;59286;59.274;17.974;2022-12-20T12:48:51;13.45;;;10.77;;
71475;SDS011;59286;59.274;17.974;2022-12-20T12:51:29;17.25;;;12.15;;
71475;SDS011;59286;59.274;17.974;2022-12-20T12:57:06;16.33;;;11.05;;
71475;SDS011;59286;59.274;17.974;2022-12-20T12:59:44;20.10;;;13.00;;
71475;SDS011;59286;59.274;17.974;2022-12-20T13:09:56;12.98;;;9.57;;
71475;SDS011;59286;59.274;17.974;2022-12-20T13:13:04;16.27;;;12.18;;
71475;SDS011;59286;59.274;17.974;2022-12-20T13:17:45;16.92;;;12.15;;
71475;SDS011;59286;59.274;17.974;2022-12-20T13:25:31;16.27;;;12.07;;
71475;SDS011;59286;59.274;17.974;2022-12-20T13:30:41;19.90;;;11.52;;
71475;SDS011;59286;59.274;17.974;2022-12-20T13:35:53;22.77;;;13.98;;
71475;SDS011;59286;59.274;17.974;2022-12-20T13:40:58;14.20;;;11.13;;
71475;SDS011;59286;59.274;17.974;2022-12-20T13:43:25;18.23;;;12.98;;
71475;SDS011;59286;59.274;17.974;2022-12-20T13:48:22;14.85;;;11.05;;
71475;SDS011;59286;59.274;17.974;2022-12-20T13:50:52;15.82;;;10.57;;
71475;SDS011;59286;59.274;17.974;2022-12-20T13:53:20;16.45;;;10.93;;
71475;SDS011;59286;59.274;17.974;2022-12-20T13:55:47;13.63;;;9.10;;
71475;SDS011;59286;59.274;17.974;2022-12-20T13:58:32;15.98;;;11.18;;
71475;SDS011;59286;59.274;17.974;2022-12-20T14:01:05;18.50;;;12.50;;
71475;SDS011;59286;59.274;17.974;2022-12-20T14:03:39;14.77;;;10.45;;
71475;SDS011;59286;59.274;17.974;2022-12-20T14:06:08;15.00;;;10.57;;
71475;SDS011;59286;59.274;17.974;2022-12-20T14:08:37;13.05;;;8.90;;
71475;SDS011;59286;59.274;17.974;2022-12-20T14:11:11;15.70;;;10.57;;
71475;SDS011;59286;59.274;17.974;2022-12-20T14:13:39;14.77;;;9.65;;
71475;SDS011;59286;59.274;17.974;2022-12-20T14:16:15;14.73;;;11.00;;
71475;SDS011;59286;59.274;17.974;2022-12-20T14:18:46;13.52;;;10.38;;
71475;SDS011;59286;59.274;17.974;2022-12-20T14:21:13;16.58;;;11.07;;
71475;SDS011;59286;59.274;17.974;2022-12-20T14:23:39;19.15;;;12.77;;
71475;SDS011;59286;59.274;17.974;2022-12-20T14:26:09;17.40;;;9.82;;
71475;SDS011;59286;59.274;17.974;2022-12-20T14:28:45;25.05;;;14.82;;
71475;SDS011;59286;59.274;17.974;2022-12-20T14:31:24;21.83;;;13.15;;
71475;SDS011;59286;59.274;17.974;2022-12-20T14:34:02;20.52;;;12.88;;
71475;SDS011;59286;59.274;17.974;2022-12-20T14:36:30;22.48;;;13.57;;
71475;SDS011;59286;59.274;17.974;2022-12-20T14:38:56;19.10;;;11.90;;
71475;SDS011;59286;59.274;17.974;2022-12-20T14:41:34;26.40;;;13.90;;
71475;SDS011;59286;59.274;17.974;2022-12-20T14:46:36;22.83;;;13.65;;
71475;SDS011;59286;59.274;17.974;2022-12-20T14:51:51;45.42;;;19.80;;
71475;SDS011;59286;59.274;17.974;2022-12-20T14:54:18;29.08;;;14.18;;
71475;SDS011;59286;59.274;17.974;2022-12-20T14:56:51;33.33;;;15.27;;
71475;SDS011;59286;59.274;17.974;2022-12-20T14:59:21;65.22;;;21.90;;
71475;SDS011;59286;59.274;17.974;2022-12-20T15:01:50;95.65;;;26.30;;
71475;SDS011;59286;59.274;17.974;2022-12-20T15:04:20;76.93;;;22.35;;
71475;SDS011;59286;59.274;17.974;2022-12-20T15:06:47;48.50;;;18.70;;
71475;SDS011;59286;59.274;17.974;2022-12-20T15:09:13;92.20;;;23.75;;
71475;SDS011;59286;59.274;17.974;2022-12-20T15:11:38;70.00;;;20.58;;
71475;SDS011;59286;59.274;17.974;2022-12-20T15:14:11;123.70;;;28.13;;
71475;SDS011;59286;59.274;17.974;2022-12-20T15:16:47;149.27;;;29.92;;
71475;SDS011;59286;59.274;17.974;2022-12-20T15:19:13;100.22;;;25.70;;
71475;SDS011;59286;59.274;17.974;2022-12-20T15:21:41;89.47;;;21.63;;
71475;SDS011;59286;59.274;17.974;2022-12-20T15:24:09;168.07;;;31.13;;
71475;SDS011;59286;59.274;17.974;2022-12-20T15:26:37;65.70;;;19.73;;
71475;SDS011;59286;59.274;17.974;2022-12-20T15:29:03;314.70;;;40.35;;
71475;SDS011;59286;59.274;17.974;2022-12-20T15:31:28;49.15;;;17.02;;
71475;SDS011;59286;59.274;17.974;2022-12-20T15:33:54;108.80;;;25.48;;
71475;SDS011;59286;59.274;17.974;2022-12-20T15:36:24;136.50;;;29.30;;
71475;SDS011;59286;59.274;17.974;2022-12-20T15:38:52;74.50;;;16.33;;
71475;SDS011;59286;59.274;17.974;2022-12-20T15:41:22;182.80;;;25.05;;
71475;SDS011;59286;59.274;17.974;2022-12-20T15:43:53;115.63;;;19.15;;
71475;SDS011;59286;59.274;17.974;2022-12-20T15:46:20;218.38;;;31.58;;
71475;SDS011;59286;59.274;17.974;2022-12-20T15:48:46;228.18;;;28.65;;
71475;SDS011;59286;59.274;17.974;2022-12-20T15:54:17;209.77;;;28.92;;
71475;SDS011;59286;59.274;17.974;2022-12-20T15:56:58;434.27;;;39.60;;
71475;SDS011;59286;59.274;17.974;2022-12-20T15:59:26;336.98;;;25.00;;
71475;SDS011;59286;59.274;17.974;2022-12-20T16:01:52;513.03;;;40.47;;
71475;SDS011;59286;59.274;17.974;2022-12-20T16:04:18;891.55;;;50.53;;
71475;SDS011;59286;59.274;17.974;2022-12-20T16:06:46;220.25;;;18.05;;
71475;SDS011;59286;59.274;17.974;2022-12-20T16:09:12;709.75;;;38.55;;
71475;SDS011;59286;59.274;17.974;2022-12-20T16:11:39;283.02;;;22.45;;
71475;SDS011;59286;59.274;17.974;2022-12-20T16:14:06;250.70;;;22.52;;
71475;SDS011;59286;59.274;17.974;2022-12-20T16:16:47;581.60;;;35.58;;
71475;SDS011;59286;59.274;17.974;2022-12-20T16:19:14;668.72;;;40.97;;
71475;SDS011;59286;59.274;17.974;2022-12-20T16:21:44;104.00;;;11.07;;
71475;SDS011;59286;59.274;17.974;2022-12-20T16:24:14;644.63;;;38.97;;
71475;SDS011;59286;59.274;17.974;2022-12-20T16:26:41;320.90;;;24.17;;
71475;SDS011;59286;59.274;17.974;2022-12-20T16:29:07;462.92;;;28.40;;